sensor_id;sensor_type;location;lat;lon;timestamp;P1;durP1;ratioP1;P2;durP2;ratioP2
58950;SDS011;44730;53.158;6.398;2022-07-25T00:00:11;5.28;;;3.17;;
58950;SDS011;44730;53.158;6.398;2022-07-25T00:02:37;4.25;;;3.08;;
58950;SDS011;44730;53.158;6.398;2022-07-25T00:05:02;3.63;;;2.85;;
58950;SDS011;44730;53.158;6.398;2022-07-25T00:07:29;3.88;;;3.00;;
58950;SDS011;44730;53.158;6.398;2022-07-25T00:09:54;3.33;;;2.70;;
58950;SDS011;44730;53.158;6.398;2022-07-25T00:12:20;3.00;;;2.70;;
58950;SDS011;44730;53.158;6.398;2022-07-25T00:14:46;3.03;;;2.60;;
58950;SDS011;44730;53.158;6.398;2022-07-25T00:17:12;3.10;;;2.80;;
58950;SDS011;44730;53.158;6.398;2022-07-25T00:19:38;8.35;;;3.05;;
58950;SDS011;44730;53.158;6.398;2022-07-25T00:22:04;3.50;;;2.97;;
58950;SDS011;44730;53.158;6.398;2022-07-25T00:24:30;3.53;;;2.85;;
58950;SDS011;44730;53.158;6.398;2022-07-25T00:26:56;3.60;;;2.92;;
58950;SDS011;44730;53.158;6.398;2022-07-25T00:29:22;3.40;;;2.97;;
58950;SDS011;44730;53.158;6.398;2022-07-25T00:31:47;4.63;;;3.10;;
58950;SDS011;44730;53.158;6.398;2022-07-25T00:34:13;4.55;;;3.00;;
58950;SDS011;44730;53.158;6.398;2022-07-25T00:36:39;5.55;;;3.30;;
58950;SDS011;44730;53.158;6.398;2022-07-25T00:39:04;5.05;;;3.05;;
58950;SDS011;44730;53.158;6.398;2022-07-25T00:41:30;4.18;;;2.60;;
58950;SDS011;44730;53.158;6.398;2022-07-25T00:43:56;3.40;;;2.97;;
58950;SDS011;44730;53.158;6.398;2022-07-25T00:46:22;3.13;;;2.83;;
58950;SDS011;44730;53.158;6.398;2022-07-25T00:48:47;3.38;;;2.75;;
58950;SDS011;44730;53.158;6.398;2022-07-25T00:51:13;3.63;;;3.13;;
58950;SDS011;44730;53.158;6.398;2022-07-25T00:53:40;6.10;;;3.20;;
58950;SDS011;44730;53.158;6.398;2022-07-25T00:56:06;3.45;;;2.97;;
58950;SDS011;44730;53.158;6.398;2022-07-25T00:58:32;3.88;;;3.47;;
58950;SDS011;44730;53.158;6.398;2022-07-25T01:00:59;4.63;;;3.28;;
58950;SDS011;44730;53.158;6.398;2022-07-25T01:03:26;4.93;;;3.78;;
58950;SDS011;44730;53.158;6.398;2022-07-25T01:05:52;6.95;;;3.80;;
58950;SDS011;44730;53.158;6.398;2022-07-25T01:08:18;5.15;;;3.92;;
58950;SDS011;44730;53.158;6.398;2022-07-25T01:10:45;6.68;;;3.90;;
58950;SDS011;44730;53.158;6.398;2022-07-25T01:13:11;5.30;;;3.88;;
58950;SDS011;44730;53.158;6.398;2022-07-25T01:15:37;4.93;;;4.25;;
58950;SDS011;44730;53.158;6.398;2022-07-25T01:18:03;4.70;;;3.97;;
58950;SDS011;44730;53.158;6.398;2022-07-25T01:20:29;5.10;;;4.18;;
58950;SDS011;44730;53.158;6.398;2022-07-25T01:22:56;4.18;;;3.72;;
58950;SDS011;44730;53.158;6.398;2022-07-25T01:25:23;5.00;;;4.07;;
58950;SDS011;44730;53.158;6.398;2022-07-25T01:27:49;7.40;;;4.35;;
58950;SDS011;44730;53.158;6.398;2022-07-25T01:30:17;6.20;;;4.22;;
58950;SDS011;44730;53.158;6.398;2022-07-25T01:32:45;6.57;;;4.30;;
58950;SDS011;44730;53.158;6.398;2022-07-25T01:35:11;5.38;;;4.13;;
58950;SDS011;44730;53.158;6.398;2022-07-25T01:37:37;4.88;;;4.13;;
58950;SDS011;44730;53.158;6.398;2022-07-25T01:40:03;4.75;;;4.03;;
58950;SDS011;44730;53.158;6.398;2022-07-25T01:42:30;6.55;;;4.65;;
58950;SDS011;44730;53.158;6.398;2022-07-25T01:44:56;5.80;;;4.28;;
58950;SDS011;44730;53.158;6.398;2022-07-25T01:47:22;5.00;;;4.20;;
58950;SDS011;44730;53.158;6.398;2022-07-25T01:49:48;5.20;;;4.60;;
58950;SDS011;44730;53.158;6.398;2022-07-25T01:52:13;5.97;;;4.55;;
58950;SDS011;44730;53.158;6.398;2022-07-25T01:54:39;5.05;;;4.32;;
58950;SDS011;44730;53.158;6.398;2022-07-25T01:57:05;6.90;;;5.07;;
58950;SDS011;44730;53.158;6.398;2022-07-25T01:59:32;6.32;;;4.80;;
58950;SDS011;44730;53.158;6.398;2022-07-25T02:02:00;5.75;;;4.15;;
58950;SDS011;44730;53.158;6.398;2022-07-25T02:04:25;4.68;;;4.28;;
58950;SDS011;44730;53.158;6.398;2022-07-25T02:06:51;5.88;;;4.63;;
58950;SDS011;44730;53.158;6.398;2022-07-25T02:09:17;4.97;;;4.30;;
58950;SDS011;44730;53.158;6.398;2022-07-25T02:11:42;10.90;;;5.80;;
58950;SDS011;44730;53.158;6.398;2022-07-25T02:14:08;5.22;;;4.53;;
58950;SDS011;44730;53.158;6.398;2022-07-25T02:16:34;5.38;;;4.57;;
58950;SDS011;44730;53.158;6.398;2022-07-25T02:18:59;6.32;;;4.47;;
58950;SDS011;44730;53.158;6.398;2022-07-25T02:21:25;5.90;;;4.60;;
58950;SDS011;44730;53.158;6.398;2022-07-25T02:23:51;5.97;;;4.40;;
58950;SDS011;44730;53.158;6.398;2022-07-25T02:26:17;7.18;;;5.03;;
58950;SDS011;44730;53.158;6.398;2022-07-25T02:28:42;6.97;;;5.30;;
58950;SDS011;44730;53.158;6.398;2022-07-25T02:31:08;5.93;;;4.90;;
58950;SDS011;44730;53.158;6.398;2022-07-25T02:33:34;6.90;;;4.68;;
58950;SDS011;44730;53.158;6.398;2022-07-25T02:36:00;5.50;;;4.60;;
58950;SDS011;44730;53.158;6.398;2022-07-25T02:38:26;6.38;;;4.97;;
58950;SDS011;44730;53.158;6.398;2022-07-25T02:40:52;7.18;;;4.80;;
58950;SDS011;44730;53.158;6.398;2022-07-25T02:43:18;6.25;;;4.60;;
58950;SDS011;44730;53.158;6.398;2022-07-25T02:45:44;6.85;;;5.03;;
58950;SDS011;44730;53.158;6.398;2022-07-25T02:48:10;6.38;;;4.55;;
58950;SDS011;44730;53.158;6.398;2022-07-25T02:50:36;6.95;;;4.70;;
58950;SDS011;44730;53.158;6.398;2022-07-25T02:53:03;6.05;;;5.05;;
58950;SDS011;44730;53.158;6.398;2022-07-25T02:55:29;6.57;;;4.45;;
58950;SDS011;44730;53.158;6.398;2022-07-25T02:57:55;5.72;;;4.80;;
58950;SDS011;44730;53.158;6.398;2022-07-25T03:00:21;5.22;;;4.72;;
58950;SDS011;44730;53.158;6.398;2022-07-25T03:02:47;8.05;;;4.70;;
58950;SDS011;44730;53.158;6.398;2022-07-25T03:05:13;5.82;;;4.85;;
58950;SDS011;44730;53.158;6.398;2022-07-25T03:07:40;5.20;;;4.50;;
58950;SDS011;44730;53.158;6.398;2022-07-25T03:10:07;7.13;;;5.30;;
58950;SDS011;44730;53.158;6.398;2022-07-25T03:12:34;6.05;;;4.90;;
58950;SDS011;44730;53.158;6.398;2022-07-25T03:15:00;5.65;;;4.63;;
58950;SDS011;44730;53.158;6.398;2022-07-25T03:17:27;5.40;;;4.35;;
58950;SDS011;44730;53.158;6.398;2022-07-25T03:19:53;5.65;;;4.70;;
58950;SDS011;44730;53.158;6.398;2022-07-25T03:22:20;7.53;;;5.93;;
58950;SDS011;44730;53.158;6.398;2022-07-25T03:24:46;6.07;;;5.47;;
58950;SDS011;44730;53.158;6.398;2022-07-25T03:27:12;8.25;;;5.75;;
58950;SDS011;44730;53.158;6.398;2022-07-25T03:29:38;6.65;;;5.78;;
58950;SDS011;44730;53.158;6.398;2022-07-25T03:32:04;7.60;;;5.78;;
58950;SDS011;44730;53.158;6.398;2022-07-25T03:34:30;6.70;;;5.15;;
58950;SDS011;44730;53.158;6.398;2022-07-25T03:36:56;6.50;;;4.90;;
58950;SDS011;44730;53.158;6.398;2022-07-25T03:39:22;8.07;;;5.15;;
58950;SDS011;44730;53.158;6.398;2022-07-25T03:41:48;6.43;;;5.40;;
58950;SDS011;44730;53.158;6.398;2022-07-25T03:44:14;7.53;;;5.50;;
58950;SDS011;44730;53.158;6.398;2022-07-25T03:46:40;7.18;;;5.20;;
58950;SDS011;44730;53.158;6.398;2022-07-25T03:49:05;6.38;;;4.93;;
58950;SDS011;44730;53.158;6.398;2022-07-25T03:51:31;7.47;;;5.55;;
58950;SDS011;44730;53.158;6.398;2022-07-25T03:53:57;6.88;;;6.10;;
58950;SDS011;44730;53.158;6.398;2022-07-25T03:59:15;7.63;;;5.93;;
58950;SDS011;44730;53.158;6.398;2022-07-25T04:01:45;6.65;;;5.88;;
58950;SDS011;44730;53.158;6.398;2022-07-25T04:04:12;9.20;;;6.70;;
58950;SDS011;44730;53.158;6.398;2022-07-25T04:06:38;7.50;;;6.45;;
58950;SDS011;44730;53.158;6.398;2022-07-25T04:09:04;7.43;;;6.10;;
58950;SDS011;44730;53.158;6.398;2022-07-25T04:11:33;8.13;;;6.07;;
58950;SDS011;44730;53.158;6.398;2022-07-25T04:14:00;8.93;;;6.70;;
58950;SDS011;44730;53.158;6.398;2022-07-25T04:16:29;6.68;;;5.93;;
58950;SDS011;44730;53.158;6.398;2022-07-25T04:18:55;7.32;;;6.10;;
58950;SDS011;44730;53.158;6.398;2022-07-25T04:21:21;8.02;;;6.07;;
58950;SDS011;44730;53.158;6.398;2022-07-25T04:23:48;8.07;;;6.28;;
58950;SDS011;44730;53.158;6.398;2022-07-25T04:26:14;9.60;;;6.40;;
58950;SDS011;44730;53.158;6.398;2022-07-25T04:28:39;8.15;;;7.00;;
58950;SDS011;44730;53.158;6.398;2022-07-25T04:31:20;8.40;;;6.70;;
58950;SDS011;44730;53.158;6.398;2022-07-25T04:33:46;7.75;;;6.35;;
58950;SDS011;44730;53.158;6.398;2022-07-25T04:36:11;7.45;;;6.15;;
58950;SDS011;44730;53.158;6.398;2022-07-25T04:38:37;8.07;;;6.93;;
58950;SDS011;44730;53.158;6.398;2022-07-25T04:41:03;9.10;;;7.10;;
58950;SDS011;44730;53.158;6.398;2022-07-25T04:43:29;8.13;;;6.82;;
58950;SDS011;44730;53.158;6.398;2022-07-25T04:45:54;9.13;;;7.47;;
58950;SDS011;44730;53.158;6.398;2022-07-25T04:48:20;10.73;;;7.00;;
58950;SDS011;44730;53.158;6.398;2022-07-25T04:50:46;8.20;;;7.25;;
58950;SDS011;44730;53.158;6.398;2022-07-25T04:53:11;9.93;;;7.68;;
58950;SDS011;44730;53.158;6.398;2022-07-25T04:55:37;10.00;;;7.45;;
58950;SDS011;44730;53.158;6.398;2022-07-25T04:58:03;9.13;;;7.63;;
58950;SDS011;44730;53.158;6.398;2022-07-25T05:00:29;10.55;;;7.55;;
58950;SDS011;44730;53.158;6.398;2022-07-25T05:02:55;10.60;;;8.27;;
58950;SDS011;44730;53.158;6.398;2022-07-25T05:05:21;10.55;;;7.90;;
58950;SDS011;44730;53.158;6.398;2022-07-25T05:07:47;13.20;;;7.72;;
58950;SDS011;44730;53.158;6.398;2022-07-25T05:10:13;9.43;;;7.57;;
58950;SDS011;44730;53.158;6.398;2022-07-25T05:12:38;12.25;;;8.63;;
58950;SDS011;44730;53.158;6.398;2022-07-25T05:15:04;9.95;;;8.43;;
58950;SDS011;44730;53.158;6.398;2022-07-25T05:17:30;9.18;;;8.15;;
58950;SDS011;44730;53.158;6.398;2022-07-25T05:19:56;9.40;;;8.43;;
58950;SDS011;44730;53.158;6.398;2022-07-25T05:22:23;9.98;;;8.18;;
58950;SDS011;44730;53.158;6.398;2022-07-25T05:24:48;9.40;;;8.07;;
58950;SDS011;44730;53.158;6.398;2022-07-25T05:27:14;9.70;;;8.70;;
58950;SDS011;44730;53.158;6.398;2022-07-25T05:29:40;9.90;;;8.02;;
58950;SDS011;44730;53.158;6.398;2022-07-25T05:32:06;9.75;;;8.75;;
58950;SDS011;44730;53.158;6.398;2022-07-25T05:34:31;10.38;;;8.50;;
58950;SDS011;44730;53.158;6.398;2022-07-25T05:36:57;11.85;;;9.20;;
58950;SDS011;44730;53.158;6.398;2022-07-25T05:39:23;11.90;;;9.63;;
58950;SDS011;44730;53.158;6.398;2022-07-25T05:41:48;11.05;;;9.23;;
58950;SDS011;44730;53.158;6.398;2022-07-25T05:44:14;13.13;;;9.38;;
58950;SDS011;44730;53.158;6.398;2022-07-25T05:46:39;10.80;;;9.45;;
58950;SDS011;44730;53.158;6.398;2022-07-25T05:49:05;13.43;;;9.80;;
58950;SDS011;44730;53.158;6.398;2022-07-25T05:51:31;12.10;;;9.45;;
58950;SDS011;44730;53.158;6.398;2022-07-25T05:53:56;11.27;;;9.40;;
58950;SDS011;44730;53.158;6.398;2022-07-25T05:56:22;10.43;;;9.32;;
58950;SDS011;44730;53.158;6.398;2022-07-25T05:58:48;11.88;;;9.43;;
58950;SDS011;44730;53.158;6.398;2022-07-25T06:01:14;14.90;;;10.63;;
58950;SDS011;44730;53.158;6.398;2022-07-25T06:03:40;17.17;;;10.75;;
58950;SDS011;44730;53.158;6.398;2022-07-25T06:06:06;11.88;;;10.55;;
58950;SDS011;44730;53.158;6.398;2022-07-25T06:08:38;11.90;;;9.57;;
58950;SDS011;44730;53.158;6.398;2022-07-25T06:11:04;14.23;;;10.48;;
58950;SDS011;44730;53.158;6.398;2022-07-25T06:13:31;12.52;;;10.70;;
58950;SDS011;44730;53.158;6.398;2022-07-25T06:15:57;11.50;;;10.05;;
58950;SDS011;44730;53.158;6.398;2022-07-25T06:18:23;12.43;;;10.80;;
58950;SDS011;44730;53.158;6.398;2022-07-25T06:20:50;14.25;;;10.60;;
58950;SDS011;44730;53.158;6.398;2022-07-25T06:23:16;13.30;;;10.55;;
58950;SDS011;44730;53.158;6.398;2022-07-25T06:25:42;13.10;;;11.25;;
58950;SDS011;44730;53.158;6.398;2022-07-25T06:28:08;11.90;;;10.23;;
58950;SDS011;44730;53.158;6.398;2022-07-25T06:30:34;13.57;;;11.30;;
58950;SDS011;44730;53.158;6.398;2022-07-25T06:33:00;11.80;;;9.80;;
58950;SDS011;44730;53.158;6.398;2022-07-25T06:35:26;13.20;;;10.43;;
58950;SDS011;44730;53.158;6.398;2022-07-25T06:37:51;15.30;;;10.48;;
58950;SDS011;44730;53.158;6.398;2022-07-25T06:40:17;12.85;;;10.98;;
58950;SDS011;44730;53.158;6.398;2022-07-25T06:42:43;11.05;;;9.80;;
58950;SDS011;44730;53.158;6.398;2022-07-25T06:45:12;13.43;;;9.27;;
58950;SDS011;44730;53.158;6.398;2022-07-25T06:47:39;12.07;;;9.82;;
58950;SDS011;44730;53.158;6.398;2022-07-25T06:50:06;12.43;;;9.52;;
58950;SDS011;44730;53.158;6.398;2022-07-25T06:52:33;12.50;;;10.23;;
58950;SDS011;44730;53.158;6.398;2022-07-25T06:54:59;12.38;;;9.70;;
58950;SDS011;44730;53.158;6.398;2022-07-25T06:57:25;11.13;;;10.00;;
58950;SDS011;44730;53.158;6.398;2022-07-25T06:59:51;11.45;;;9.45;;
58950;SDS011;44730;53.158;6.398;2022-07-25T07:02:17;13.55;;;8.95;;
58950;SDS011;44730;53.158;6.398;2022-07-25T07:04:42;12.13;;;9.32;;
58950;SDS011;44730;53.158;6.398;2022-07-25T07:07:08;11.27;;;9.20;;
58950;SDS011;44730;53.158;6.398;2022-07-25T07:09:34;12.57;;;9.75;;
58950;SDS011;44730;53.158;6.398;2022-07-25T07:11:59;11.25;;;9.23;;
58950;SDS011;44730;53.158;6.398;2022-07-25T07:14:25;10.68;;;9.13;;
58950;SDS011;44730;53.158;6.398;2022-07-25T07:16:51;10.45;;;8.75;;
58950;SDS011;44730;53.158;6.398;2022-07-25T07:19:16;10.93;;;8.82;;
58950;SDS011;44730;53.158;6.398;2022-07-25T07:21:42;11.38;;;9.05;;
58950;SDS011;44730;53.158;6.398;2022-07-25T07:24:08;9.63;;;7.97;;
58950;SDS011;44730;53.158;6.398;2022-07-25T07:26:34;9.80;;;8.60;;
58950;SDS011;44730;53.158;6.398;2022-07-25T07:28:59;9.50;;;7.95;;
58950;SDS011;44730;53.158;6.398;2022-07-25T07:31:27;9.88;;;8.88;;
58950;SDS011;44730;53.158;6.398;2022-07-25T07:33:52;13.52;;;8.55;;
58950;SDS011;44730;53.158;6.398;2022-07-25T07:36:18;9.85;;;8.30;;
58950;SDS011;44730;53.158;6.398;2022-07-25T07:38:44;9.88;;;8.00;;
58950;SDS011;44730;53.158;6.398;2022-07-25T07:41:10;9.45;;;8.38;;
58950;SDS011;44730;53.158;6.398;2022-07-25T07:43:36;9.65;;;7.80;;
58950;SDS011;44730;53.158;6.398;2022-07-25T07:46:02;14.13;;;8.52;;
58950;SDS011;44730;53.158;6.398;2022-07-25T07:48:28;10.20;;;7.57;;
58950;SDS011;44730;53.158;6.398;2022-07-25T07:50:54;10.38;;;8.10;;
58950;SDS011;44730;53.158;6.398;2022-07-25T07:53:21;9.07;;;7.35;;
58950;SDS011;44730;53.158;6.398;2022-07-25T07:55:46;10.30;;;7.70;;
58950;SDS011;44730;53.158;6.398;2022-07-25T07:58:19;9.90;;;7.10;;
58950;SDS011;44730;53.158;6.398;2022-07-25T08:00:45;8.48;;;7.45;;
58950;SDS011;44730;53.158;6.398;2022-07-25T08:03:16;9.15;;;7.28;;
58950;SDS011;44730;53.158;6.398;2022-07-25T08:05:42;8.32;;;7.20;;
58950;SDS011;44730;53.158;6.398;2022-07-25T08:08:10;8.02;;;6.47;;
58950;SDS011;44730;53.158;6.398;2022-07-25T08:10:38;8.45;;;6.80;;
58950;SDS011;44730;53.158;6.398;2022-07-25T08:13:13;9.30;;;6.70;;
58950;SDS011;44730;53.158;6.398;2022-07-25T08:15:47;8.15;;;6.03;;
58950;SDS011;44730;53.158;6.398;2022-07-25T08:18:18;7.30;;;5.47;;
58950;SDS011;44730;53.158;6.398;2022-07-25T08:20:44;7.07;;;5.82;;
58950;SDS011;44730;53.158;6.398;2022-07-25T08:23:11;7.03;;;5.35;;
58950;SDS011;44730;53.158;6.398;2022-07-25T08:25:37;5.20;;;4.57;;
58950;SDS011;44730;53.158;6.398;2022-07-25T08:28:03;4.88;;;4.20;;
58950;SDS011;44730;53.158;6.398;2022-07-25T08:30:30;5.88;;;4.60;;
58950;SDS011;44730;53.158;6.398;2022-07-25T08:32:58;5.47;;;4.00;;
58950;SDS011;44730;53.158;6.398;2022-07-25T08:35:25;4.57;;;3.75;;
58950;SDS011;44730;53.158;6.398;2022-07-25T08:37:51;5.80;;;3.97;;
58950;SDS011;44730;53.158;6.398;2022-07-25T08:40:19;4.78;;;3.80;;
58950;SDS011;44730;53.158;6.398;2022-07-25T08:42:46;4.90;;;4.07;;
58950;SDS011;44730;53.158;6.398;2022-07-25T08:45:12;5.72;;;4.13;;
58950;SDS011;44730;53.158;6.398;2022-07-25T08:47:40;4.13;;;3.72;;
58950;SDS011;44730;53.158;6.398;2022-07-25T08:50:07;4.40;;;3.63;;
58950;SDS011;44730;53.158;6.398;2022-07-25T08:52:35;5.70;;;3.40;;
58950;SDS011;44730;53.158;6.398;2022-07-25T08:55:05;7.03;;;4.30;;
58950;SDS011;44730;53.158;6.398;2022-07-25T08:57:34;5.45;;;3.00;;
58950;SDS011;44730;53.158;6.398;2022-07-25T09:00:03;14.07;;;3.10;;
58950;SDS011;44730;53.158;6.398;2022-07-25T09:02:29;4.15;;;3.03;;
58950;SDS011;44730;53.158;6.398;2022-07-25T09:04:56;3.67;;;2.83;;
58950;SDS011;44730;53.158;6.398;2022-07-25T09:07:32;4.63;;;2.67;;
58950;SDS011;44730;53.158;6.398;2022-07-25T09:12:49;2.65;;;2.30;;
58950;SDS011;44730;53.158;6.398;2022-07-25T09:18:07;4.28;;;2.42;;
58950;SDS011;44730;53.158;6.398;2022-07-25T09:20:38;4.20;;;2.20;;
58950;SDS011;44730;53.158;6.398;2022-07-25T09:23:09;4.68;;;2.40;;
58950;SDS011;44730;53.158;6.398;2022-07-25T09:25:35;4.88;;;2.60;;
58950;SDS011;44730;53.158;6.398;2022-07-25T09:28:17;3.85;;;2.50;;
58950;SDS011;44730;53.158;6.398;2022-07-25T09:30:57;3.33;;;2.25;;
58950;SDS011;44730;53.158;6.398;2022-07-25T09:33:24;4.25;;;2.50;;
58950;SDS011;44730;53.158;6.398;2022-07-25T09:35:51;2.45;;;1.90;;
58950;SDS011;44730;53.158;6.398;2022-07-25T09:38:18;5.20;;;2.33;;
58950;SDS011;44730;53.158;6.398;2022-07-25T09:46:06;3.42;;;2.03;;
58950;SDS011;44730;53.158;6.398;2022-07-25T09:48:32;6.45;;;2.20;;
58950;SDS011;44730;53.158;6.398;2022-07-25T09:50:59;4.63;;;2.60;;
58950;SDS011;44730;53.158;6.398;2022-07-25T09:53:25;2.40;;;2.20;;
58950;SDS011;44730;53.158;6.398;2022-07-25T09:55:51;3.42;;;2.63;;
58950;SDS011;44730;53.158;6.398;2022-07-25T09:58:24;2.72;;;2.10;;
58950;SDS011;44730;53.158;6.398;2022-07-25T10:00:54;4.00;;;2.30;;
58950;SDS011;44730;53.158;6.398;2022-07-25T10:08:59;3.30;;;2.30;;
58950;SDS011;44730;53.158;6.398;2022-07-25T10:11:25;2.53;;;1.92;;
58950;SDS011;44730;53.158;6.398;2022-07-25T10:13:52;3.97;;;2.17;;
58950;SDS011;44730;53.158;6.398;2022-07-25T10:16:20;3.28;;;2.20;;
58950;SDS011;44730;53.158;6.398;2022-07-25T10:18:57;2.88;;;2.28;;
58950;SDS011;44730;53.158;6.398;2022-07-25T10:21:23;2.60;;;2.30;;
58950;SDS011;44730;53.158;6.398;2022-07-25T10:24:04;4.25;;;2.30;;
58950;SDS011;44730;53.158;6.398;2022-07-25T10:26:30;3.58;;;2.40;;
58950;SDS011;44730;53.158;6.398;2022-07-25T10:28:57;3.85;;;2.63;;
58950;SDS011;44730;53.158;6.398;2022-07-25T10:34:07;5.13;;;2.67;;
58950;SDS011;44730;53.158;6.398;2022-07-25T10:36:44;3.75;;;2.65;;
58950;SDS011;44730;53.158;6.398;2022-07-25T10:39:13;3.40;;;2.65;;
58950;SDS011;44730;53.158;6.398;2022-07-25T10:41:40;3.97;;;2.30;;
58950;SDS011;44730;53.158;6.398;2022-07-25T10:44:12;2.90;;;2.00;;
58950;SDS011;44730;53.158;6.398;2022-07-25T10:46:40;5.18;;;2.38;;
58950;SDS011;44730;53.158;6.398;2022-07-25T10:49:14;4.22;;;2.30;;
58950;SDS011;44730;53.158;6.398;2022-07-25T10:51:55;3.78;;;2.35;;
58950;SDS011;44730;53.158;6.398;2022-07-25T10:54:23;3.92;;;2.50;;
58950;SDS011;44730;53.158;6.398;2022-07-25T10:56:53;5.45;;;2.25;;
58950;SDS011;44730;53.158;6.398;2022-07-25T10:59:39;4.43;;;2.50;;
58950;SDS011;44730;53.158;6.398;2022-07-25T11:02:06;4.78;;;2.47;;
58950;SDS011;44730;53.158;6.398;2022-07-25T11:04:40;5.05;;;2.70;;
58950;SDS011;44730;53.158;6.398;2022-07-25T11:07:10;8.63;;;2.50;;
58950;SDS011;44730;53.158;6.398;2022-07-25T11:09:38;5.93;;;3.03;;
58950;SDS011;44730;53.158;6.398;2022-07-25T11:12:05;4.03;;;2.75;;
58950;SDS011;44730;53.158;6.398;2022-07-25T11:14:34;5.20;;;2.80;;
58950;SDS011;44730;53.158;6.398;2022-07-25T11:17:17;6.70;;;2.85;;
58950;SDS011;44730;53.158;6.398;2022-07-25T11:22:30;3.97;;;2.63;;
58950;SDS011;44730;53.158;6.398;2022-07-25T11:24:57;5.00;;;2.42;;
58950;SDS011;44730;53.158;6.398;2022-07-25T11:27:28;3.35;;;2.45;;
58950;SDS011;44730;53.158;6.398;2022-07-25T11:30:08;5.43;;;2.78;;
58950;SDS011;44730;53.158;6.398;2022-07-25T11:35:05;4.97;;;2.50;;
58950;SDS011;44730;53.158;6.398;2022-07-25T11:37:34;3.63;;;2.63;;
58950;SDS011;44730;53.158;6.398;2022-07-25T11:40:04;4.85;;;2.78;;
58950;SDS011;44730;53.158;6.398;2022-07-25T11:42:41;7.20;;;3.00;;
58950;SDS011;44730;53.158;6.398;2022-07-25T11:45:19;5.45;;;2.95;;
58950;SDS011;44730;53.158;6.398;2022-07-25T11:47:46;4.47;;;2.50;;
58950;SDS011;44730;53.158;6.398;2022-07-25T11:50:30;4.40;;;2.40;;
58950;SDS011;44730;53.158;6.398;2022-07-25T11:53:00;7.70;;;3.17;;
58950;SDS011;44730;53.158;6.398;2022-07-25T11:55:28;4.55;;;2.50;;
58950;SDS011;44730;53.158;6.398;2022-07-25T11:57:59;3.92;;;2.50;;
58950;SDS011;44730;53.158;6.398;2022-07-25T12:00:26;6.90;;;2.72;;
58950;SDS011;44730;53.158;6.398;2022-07-25T12:02:52;4.32;;;2.10;;
58950;SDS011;44730;53.158;6.398;2022-07-25T12:05:19;4.03;;;2.28;;
58950;SDS011;44730;53.158;6.398;2022-07-25T12:07:55;5.05;;;2.05;;
58950;SDS011;44730;53.158;6.398;2022-07-25T12:10:21;3.80;;;2.20;;
58950;SDS011;44730;53.158;6.398;2022-07-25T12:12:55;5.90;;;2.40;;
58950;SDS011;44730;53.158;6.398;2022-07-25T12:15:23;2.95;;;2.30;;
58950;SDS011;44730;53.158;6.398;2022-07-25T12:17:52;3.75;;;2.25;;
58950;SDS011;44730;53.158;6.398;2022-07-25T12:20:20;4.22;;;2.42;;
58950;SDS011;44730;53.158;6.398;2022-07-25T12:23:07;5.03;;;2.30;;
58950;SDS011;44730;53.158;6.398;2022-07-25T12:25:38;6.55;;;2.33;;
58950;SDS011;44730;53.158;6.398;2022-07-25T12:28:05;3.47;;;2.30;;
58950;SDS011;44730;53.158;6.398;2022-07-25T12:30:32;6.05;;;2.15;;
58950;SDS011;44730;53.158;6.398;2022-07-25T12:32:58;6.53;;;2.08;;
58950;SDS011;44730;53.158;6.398;2022-07-25T12:35:24;2.13;;;1.80;;
58950;SDS011;44730;53.158;6.398;2022-07-25T12:37:50;5.70;;;2.78;;
58950;SDS011;44730;53.158;6.398;2022-07-25T12:40:16;5.72;;;2.60;;
58950;SDS011;44730;53.158;6.398;2022-07-25T12:42:42;5.65;;;2.58;;
58950;SDS011;44730;53.158;6.398;2022-07-25T12:45:09;3.97;;;2.30;;
58950;SDS011;44730;53.158;6.398;2022-07-25T12:47:35;2.78;;;2.33;;
58950;SDS011;44730;53.158;6.398;2022-07-25T12:50:01;4.20;;;2.10;;
58950;SDS011;44730;53.158;6.398;2022-07-25T12:52:29;4.10;;;2.33;;
58950;SDS011;44730;53.158;6.398;2022-07-25T12:54:54;3.92;;;2.42;;
58950;SDS011;44730;53.158;6.398;2022-07-25T12:57:20;3.85;;;2.33;;
58950;SDS011;44730;53.158;6.398;2022-07-25T12:59:46;4.43;;;2.10;;
58950;SDS011;44730;53.158;6.398;2022-07-25T13:02:11;4.25;;;2.05;;
58950;SDS011;44730;53.158;6.398;2022-07-25T13:04:37;3.15;;;1.95;;
58950;SDS011;44730;53.158;6.398;2022-07-25T13:07:03;4.43;;;2.42;;
58950;SDS011;44730;53.158;6.398;2022-07-25T13:09:29;3.95;;;2.28;;
58950;SDS011;44730;53.158;6.398;2022-07-25T13:11:56;5.45;;;2.80;;
58950;SDS011;44730;53.158;6.398;2022-07-25T13:14:22;3.50;;;2.35;;
58950;SDS011;44730;53.158;6.398;2022-07-25T13:16:48;5.07;;;2.67;;
58950;SDS011;44730;53.158;6.398;2022-07-25T13:19:14;4.90;;;2.40;;
58950;SDS011;44730;53.158;6.398;2022-07-25T13:21:41;5.47;;;2.65;;
58950;SDS011;44730;53.158;6.398;2022-07-25T13:24:07;5.30;;;2.50;;
58950;SDS011;44730;53.158;6.398;2022-07-25T13:26:34;5.47;;;2.70;;
58950;SDS011;44730;53.158;6.398;2022-07-25T13:29:01;5.13;;;2.40;;
58950;SDS011;44730;53.158;6.398;2022-07-25T13:31:27;8.50;;;2.65;;
58950;SDS011;44730;53.158;6.398;2022-07-25T13:33:53;6.38;;;2.42;;
58950;SDS011;44730;53.158;6.398;2022-07-25T13:36:19;5.63;;;2.50;;
58950;SDS011;44730;53.158;6.398;2022-07-25T13:38:45;3.45;;;2.17;;
58950;SDS011;44730;53.158;6.398;2022-07-25T13:41:12;4.82;;;2.88;;
58950;SDS011;44730;53.158;6.398;2022-07-25T13:43:38;5.22;;;2.63;;
58950;SDS011;44730;53.158;6.398;2022-07-25T13:46:04;5.60;;;2.65;;
58950;SDS011;44730;53.158;6.398;2022-07-25T13:48:30;4.97;;;3.10;;
58950;SDS011;44730;53.158;6.398;2022-07-25T13:50:57;5.93;;;2.80;;
58950;SDS011;44730;53.158;6.398;2022-07-25T13:53:23;8.30;;;3.00;;
58950;SDS011;44730;53.158;6.398;2022-07-25T13:55:49;4.35;;;2.50;;
58950;SDS011;44730;53.158;6.398;2022-07-25T13:58:15;4.47;;;2.85;;
58950;SDS011;44730;53.158;6.398;2022-07-25T14:00:41;6.25;;;2.65;;
58950;SDS011;44730;53.158;6.398;2022-07-25T14:03:07;4.82;;;2.63;;
58950;SDS011;44730;53.158;6.398;2022-07-25T14:05:32;5.13;;;2.60;;
58950;SDS011;44730;53.158;6.398;2022-07-25T14:07:58;7.13;;;2.45;;
58950;SDS011;44730;53.158;6.398;2022-07-25T14:10:24;4.22;;;2.70;;
58950;SDS011;44730;53.158;6.398;2022-07-25T14:12:50;4.97;;;2.70;;
58950;SDS011;44730;53.158;6.398;2022-07-25T14:15:16;4.68;;;2.92;;
58950;SDS011;44730;53.158;6.398;2022-07-25T14:17:42;5.55;;;2.83;;
58950;SDS011;44730;53.158;6.398;2022-07-25T14:20:08;5.95;;;2.47;;
58950;SDS011;44730;53.158;6.398;2022-07-25T14:22:35;4.63;;;2.50;;
58950;SDS011;44730;53.158;6.398;2022-07-25T14:25:01;5.20;;;2.38;;
58950;SDS011;44730;53.158;6.398;2022-07-25T14:27:27;5.38;;;2.90;;
58950;SDS011;44730;53.158;6.398;2022-07-25T14:29:53;9.63;;;3.53;;
58950;SDS011;44730;53.158;6.398;2022-07-25T14:32:19;5.22;;;2.53;;
58950;SDS011;44730;53.158;6.398;2022-07-25T14:34:44;4.78;;;2.33;;
58950;SDS011;44730;53.158;6.398;2022-07-25T14:37:10;5.50;;;2.88;;
58950;SDS011;44730;53.158;6.398;2022-07-25T14:39:36;4.90;;;2.40;;
58950;SDS011;44730;53.158;6.398;2022-07-25T14:42:02;4.82;;;2.22;;
58950;SDS011;44730;53.158;6.398;2022-07-25T14:44:28;4.57;;;2.35;;
58950;SDS011;44730;53.158;6.398;2022-07-25T14:46:54;6.38;;;2.72;;
58950;SDS011;44730;53.158;6.398;2022-07-25T14:49:21;5.85;;;2.67;;
58950;SDS011;44730;53.158;6.398;2022-07-25T14:51:47;6.30;;;2.40;;
58950;SDS011;44730;53.158;6.398;2022-07-25T14:54:14;5.25;;;2.40;;
58950;SDS011;44730;53.158;6.398;2022-07-25T14:56:42;4.55;;;2.38;;
58950;SDS011;44730;53.158;6.398;2022-07-25T14:59:08;4.68;;;2.92;;
58950;SDS011;44730;53.158;6.398;2022-07-25T15:01:34;6.03;;;2.95;;
58950;SDS011;44730;53.158;6.398;2022-07-25T15:06:26;4.68;;;2.78;;
58950;SDS011;44730;53.158;6.398;2022-07-25T15:08:51;6.88;;;2.72;;
58950;SDS011;44730;53.158;6.398;2022-07-25T15:11:21;4.40;;;2.47;;
58950;SDS011;44730;53.158;6.398;2022-07-25T15:13:48;7.10;;;2.80;;